createdAt,value
2018-05-26T00:01:16.570Z,16.70
2018-05-26T00:03:44.156Z,16.70
2018-05-26T00:06:11.895Z,16.60
2018-05-26T00:08:39.763Z,16.60
2018-05-26T00:11:07.628Z,16.60
2018-05-26T00:13:35.402Z,16.60
2018-05-26T00:16:03.260Z,16.50
2018-05-26T00:18:31.127Z,16.50
2018-05-26T00:20:58.993Z,16.60
2018-05-26T00:23:26.865Z,16.50
2018-05-26T00:25:54.727Z,16.50
2018-05-26T00:28:22.939Z,16.50
2018-05-26T00:30:51.691Z,16.50
2018-05-26T00:33:19.560Z,16.50
2018-05-26T00:35:47.325Z,16.50
2018-05-26T00:38:15.085Z,16.50
2018-05-26T00:40:42.955Z,16.50
2018-05-26T00:43:10.818Z,16.50
2018-05-26T00:45:38.789Z,16.50
2018-05-26T00:48:06.581Z,16.50
2018-05-26T00:50:34.320Z,16.50
2018-05-26T00:53:03.142Z,16.40
2018-05-26T00:55:31.792Z,16.40
2018-05-26T00:57:59.658Z,16.40
2018-05-26T01:00:27.527Z,16.40
2018-05-26T01:02:56.416Z,16.40
2018-05-26T01:05:24.287Z,16.40
2018-05-26T01:07:52.048Z,16.40
2018-05-26T01:10:19.915Z,16.40
2018-05-26T01:12:47.781Z,16.40
2018-05-26T01:15:15.588Z,16.40
2018-05-26T01:17:44.234Z,16.30
2018-05-26T01:20:12.201Z,16.30
2018-05-26T01:22:40.068Z,16.30
2018-05-26T01:25:07.936Z,16.30
2018-05-26T01:27:36.460Z,16.20
2018-05-26T01:30:05.036Z,16.20
2018-05-26T01:32:32.868Z,16.20
2018-05-26T01:35:00.735Z,16.20
2018-05-26T01:37:28.600Z,16.20
2018-05-26T01:39:56.365Z,16.20
2018-05-26T01:42:24.232Z,16.20
2018-05-26T01:44:52.099Z,16.10
2018-05-26T01:47:19.821Z,16.10
2018-05-26T01:49:47.730Z,16.10
2018-05-26T01:52:15.527Z,16.10
2018-05-26T01:54:43.361Z,16.10
2018-05-26T01:57:11.230Z,16.10
2018-05-26T01:59:39.094Z,16.10
2018-05-26T02:02:06.962Z,16.20
2018-05-26T02:04:34.764Z,16.10
2018-05-26T02:07:03.310Z,16.10
2018-05-26T02:09:31.176Z,16.10
2018-05-26T02:11:59.043Z,16.10
2018-05-26T02:14:26.845Z,16.10
2018-05-26T02:16:55.494Z,16.00
2018-05-26T02:19:23.258Z,16.00
2018-05-26T02:21:51.125Z,16.00
2018-05-26T02:24:19.096Z,16.00
2018-05-26T02:26:46.965Z,16.00
2018-05-26T02:29:14.829Z,16.00
2018-05-26T02:31:42.696Z,16.00
2018-05-26T02:34:10.562Z,15.90
2018-05-26T02:36:38.429Z,15.90
2018-05-26T02:39:06.224Z,15.90
2018-05-26T02:41:34.065Z,15.90
2018-05-26T02:44:01.800Z,15.90
2018-05-26T02:46:29.595Z,15.90
2018-05-26T02:48:57.456Z,15.90
2018-05-26T02:51:26.168Z,15.90
2018-05-26T02:53:54.009Z,15.90
2018-05-26T02:56:22.388Z,15.80
2018-05-26T02:58:50.192Z,15.80
2018-05-26T03:01:18.022Z,15.80
2018-05-26T03:03:46.296Z,15.80
2018-05-26T03:06:19.795Z,15.80
2018-05-26T03:08:53.500Z,15.80
2018-05-26T03:11:27.222Z,15.80
2018-05-26T03:14:00.701Z,15.80
2018-05-26T03:16:34.332Z,15.80
2018-05-26T03:19:02.272Z,15.80
2018-05-26T03:21:30.030Z,15.70
2018-05-26T03:23:57.951Z,15.70
2018-05-26T03:26:26.589Z,15.70
2018-05-26T03:28:54.488Z,15.70
2018-05-26T03:31:22.353Z,15.70
2018-05-26T03:33:50.227Z,15.80
2018-05-26T03:36:18.929Z,15.80
2018-05-26T03:38:47.561Z,15.80
2018-05-26T03:41:15.327Z,15.80
2018-05-26T03:43:43.192Z,15.80
2018-05-26T03:46:10.849Z,15.90
2018-05-26T03:48:38.641Z,15.90
2018-05-26T03:51:06.487Z,15.90
2018-05-26T03:53:34.354Z,15.90
2018-05-26T04:09:30.400Z,16.00
2018-05-26T04:11:58.266Z,16.00
2018-05-26T04:14:26.103Z,16.00
2018-05-26T04:16:53.968Z,16.00
2018-05-26T04:19:21.732Z,16.00
2018-05-26T04:21:49.826Z,16.00
2018-05-26T04:24:17.568Z,16.00
2018-05-26T04:26:45.435Z,16.10
2018-05-26T04:29:13.303Z,16.10
2018-05-26T04:31:41.107Z,16.10
2018-05-26T04:34:09.425Z,16.20
2018-05-26T04:36:36.959Z,16.10
2018-05-26T04:51:59.266Z,16.60
2018-05-26T04:54:26.785Z,16.70
2018-05-26T04:56:54.307Z,16.70
2018-05-26T04:59:22.596Z,16.80
2018-05-26T05:01:50.894Z,16.80
2018-05-26T05:04:18.420Z,16.80
2018-05-26T05:06:46.701Z,16.80
2018-05-26T05:09:14.985Z,16.80
2018-05-26T05:11:43.266Z,16.80
2018-05-26T05:14:10.785Z,16.80
2018-05-26T05:16:39.805Z,16.90
2018-05-26T05:19:08.093Z,17.00
2018-05-26T05:21:36.381Z,17.00
2018-05-26T05:24:03.893Z,17.00
2018-05-26T05:26:31.422Z,17.00
2018-05-26T05:28:58.941Z,17.00
2018-05-26T05:31:27.225Z,17.10
2018-05-26T05:33:55.513Z,17.20
2018-05-26T05:36:23.032Z,17.20
2018-05-26T05:38:51.333Z,17.30
2018-05-26T05:41:19.626Z,17.30
2018-05-26T05:43:47.154Z,17.30
2018-05-26T05:46:15.545Z,17.40
2018-05-26T05:48:43.829Z,17.50
2018-05-26T05:51:11.389Z,17.50
2018-05-26T05:53:38.906Z,17.60
2018-05-26T05:56:06.426Z,17.70
2018-05-26T05:58:33.949Z,17.80
2018-05-26T06:01:02.234Z,17.90
2018-05-26T06:03:30.518Z,17.90
2018-05-26T06:05:58.901Z,18.00
2018-05-26T06:08:26.448Z,18.00
2018-05-26T06:10:54.728Z,18.10
2018-05-26T06:13:23.022Z,18.20
2018-05-26T06:15:50.564Z,18.20
2018-05-26T06:18:18.101Z,18.20
2018-05-26T06:20:45.614Z,18.30
2018-05-26T06:23:13.137Z,18.40
2018-05-26T06:25:41.421Z,18.40
2018-05-26T06:28:08.954Z,18.40
2018-05-26T06:30:37.247Z,18.50
2018-05-26T06:33:05.533Z,18.50
2018-05-26T06:35:33.814Z,18.60
2018-05-26T06:38:01.337Z,18.60
2018-05-26T06:40:28.866Z,18.70
2018-05-26T06:42:56.385Z,18.80
2018-05-26T06:45:24.687Z,19.00
2018-05-26T06:47:52.202Z,19.00
2018-05-26T06:50:20.490Z,19.00
2018-05-26T06:52:48.026Z,19.00
2018-05-26T06:55:17.058Z,19.10
2018-05-26T06:57:44.577Z,19.10
2018-05-26T07:00:12.135Z,19.20
2018-05-26T07:02:39.630Z,19.30
2018-05-26T07:05:07.923Z,19.50
2018-05-26T07:07:35.441Z,19.40
2018-05-26T07:10:02.957Z,19.50
2018-05-26T07:12:30.477Z,19.60
2018-05-26T07:14:58.762Z,19.90
2018-05-26T07:17:27.042Z,20.00
2018-05-26T07:19:54.564Z,20.00
2018-05-26T07:22:23.594Z,20.10
2018-05-26T07:24:51.114Z,20.10
2018-05-26T07:27:20.142Z,20.10
2018-05-26T07:29:48.425Z,20.20
2018-05-26T07:32:15.937Z,20.20
2018-05-26T07:34:43.456Z,20.10
2018-05-26T07:37:10.980Z,20.00
2018-05-26T07:39:39.269Z,20.00
2018-05-26T07:42:07.551Z,19.90
2018-05-26T07:44:35.073Z,19.90
2018-05-26T07:47:04.100Z,19.90
2018-05-26T07:49:32.378Z,19.90
2018-05-26T07:51:59.907Z,19.90
2018-05-26T07:54:28.186Z,20.00
2018-05-26T07:56:56.469Z,20.10
2018-05-26T07:59:23.981Z,20.00
2018-05-26T08:01:51.489Z,20.10
2018-05-26T08:04:19.781Z,20.20
2018-05-26T08:06:48.081Z,20.20
2018-05-26T08:09:15.615Z,20.20
2018-05-26T08:11:43.147Z,20.20
2018-05-26T08:14:10.656Z,20.30
2018-05-26T08:16:38.180Z,20.40
2018-05-26T08:19:06.467Z,20.40
2018-05-26T08:21:34.761Z,20.40
2018-05-26T08:24:02.272Z,20.40
2018-05-26T08:26:31.298Z,20.50
2018-05-26T08:28:59.593Z,20.60
2018-05-26T08:31:27.106Z,20.60
2018-05-26T08:33:54.757Z,20.70
2018-05-26T08:36:22.254Z,20.80
2018-05-26T08:38:50.537Z,20.90
2018-05-26T08:41:18.054Z,21.00
2018-05-26T08:43:45.588Z,21.10
2018-05-26T08:46:13.120Z,21.20
2018-05-26T08:48:40.641Z,21.20
2018-05-26T08:51:08.189Z,21.20
2018-05-26T08:53:35.737Z,21.30
2018-05-26T08:56:03.271Z,21.40
2018-05-26T08:58:30.781Z,21.40
2018-05-26T09:00:59.066Z,21.50
2018-05-26T09:03:27.354Z,21.60
2018-05-26T09:05:54.362Z,21.80
2018-05-26T09:08:20.634Z,21.70
2018-05-26T09:10:47.646Z,21.90
2018-05-26T09:13:14.665Z,22.00
2018-05-26T09:15:40.942Z,22.00
2018-05-26T09:18:07.977Z,22.20
2018-05-26T09:20:35.765Z,22.20
2018-05-26T09:23:13.197Z,22.30
2018-05-26T09:25:39.437Z,22.30
2018-05-26T09:28:05.678Z,22.40
2018-05-26T09:30:31.929Z,22.40
2018-05-26T09:32:58.161Z,22.50
2018-05-26T09:35:25.166Z,22.70
2018-05-26T09:37:51.447Z,22.70
2018-05-26T09:40:18.420Z,22.90
2018-05-26T09:42:44.697Z,22.90
2018-05-26T09:45:10.917Z,23.00
2018-05-26T09:47:37.150Z,23.20
2018-05-26T09:50:04.141Z,23.40
2018-05-26T09:52:30.389Z,23.40
2018-05-26T09:54:56.606Z,23.60
2018-05-26T09:57:22.835Z,23.70
2018-05-26T09:59:49.071Z,23.80
2018-05-26T10:02:16.246Z,24.00
2018-05-26T10:04:42.477Z,24.00
2018-05-26T10:07:08.698Z,24.00
2018-05-26T10:09:34.914Z,24.20
2018-05-26T10:12:08.091Z,24.30
2018-05-26T10:14:34.333Z,24.40
2018-05-26T10:17:00.665Z,24.60
2018-05-26T10:19:26.962Z,24.80
2018-05-26T10:21:53.926Z,25.00
2018-05-26T10:24:20.190Z,25.00
2018-05-26T10:26:46.402Z,25.10
2018-05-26T10:29:12.634Z,25.20
2018-05-26T10:31:38.846Z,25.30
2018-05-26T10:34:05.074Z,25.40
2018-05-26T10:36:31.310Z,25.50
2018-05-26T10:38:57.575Z,25.70
2018-05-26T10:41:23.794Z,25.90
2018-05-26T10:43:50.050Z,26.10
2018-05-26T10:46:24.062Z,26.40
2018-05-26T10:48:51.070Z,26.60
2018-05-26T10:51:17.376Z,26.60
2018-05-26T10:53:43.595Z,26.70
2018-05-26T10:56:09.828Z,26.80
2018-05-26T10:58:36.051Z,26.90
2018-05-26T11:01:02.269Z,27.00
2018-05-26T11:03:29.242Z,26.90
2018-05-26T11:05:55.467Z,26.90
2018-05-26T11:08:21.686Z,27.10
2018-05-26T11:10:47.903Z,27.20
2018-05-26T11:13:14.165Z,27.30
2018-05-26T11:15:40.382Z,27.20
2018-05-26T11:18:06.646Z,27.10
2018-05-26T11:20:32.921Z,27.10
2018-05-26T11:22:59.163Z,27.30
2018-05-26T11:25:25.448Z,27.60
2018-05-26T11:27:51.650Z,27.80
2018-05-26T11:30:17.901Z,27.70
2018-05-26T11:32:44.113Z,27.60
2018-05-26T11:35:10.338Z,27.40
2018-05-26T11:37:36.549Z,27.30
2018-05-26T11:40:02.804Z,27.30
2018-05-26T11:42:29.030Z,27.10
2018-05-26T11:44:56.027Z,27.30
2018-05-26T11:47:22.257Z,27.30
2018-05-26T11:49:48.477Z,27.50
2018-05-26T11:52:15.457Z,27.40
2018-05-26T11:54:41.702Z,27.30
2018-05-26T11:57:07.922Z,27.20
2018-05-26T11:59:34.142Z,27.10
2018-05-26T12:02:00.418Z,27.10
2018-05-26T12:04:26.613Z,27.30
2018-05-26T12:06:52.877Z,27.50
2018-05-26T12:09:19.878Z,27.80
2018-05-26T12:11:46.123Z,27.80
2018-05-26T12:14:12.361Z,27.60
2018-05-26T12:16:38.598Z,27.60
2018-05-26T12:19:04.826Z,27.80
2018-05-26T12:21:31.066Z,27.70
2018-05-26T12:23:58.050Z,27.90
2018-05-26T12:26:24.297Z,27.90
2018-05-26T12:28:50.517Z,28.00
2018-05-26T12:31:16.746Z,28.20
2018-05-26T12:33:42.975Z,28.30
2018-05-26T12:36:09.221Z,28.40
2018-05-26T12:38:35.449Z,28.70
2018-05-26T12:41:01.678Z,28.90
2018-05-26T12:43:27.942Z,29.10
2018-05-26T12:45:54.924Z,29.40
2018-05-26T12:48:21.142Z,29.40
2018-05-26T12:50:47.382Z,29.50
2018-05-26T12:53:13.614Z,29.60
2018-05-26T12:55:39.852Z,29.80
2018-05-26T12:58:06.083Z,30.10
2018-05-26T13:00:32.323Z,30.50
2018-05-26T13:02:58.566Z,30.80
2018-05-26T13:05:24.789Z,30.90
2018-05-26T13:07:51.033Z,31.00
2018-05-26T13:10:17.278Z,31.00
2018-05-26T13:12:44.262Z,31.00
2018-05-26T13:15:10.553Z,31.00
2018-05-26T13:17:37.532Z,30.50
2018-05-26T13:20:03.774Z,30.40
2018-05-26T13:22:29.994Z,30.50
2018-05-26T13:24:56.310Z,30.70
2018-05-26T13:27:22.579Z,30.90
2018-05-26T13:29:48.829Z,31.10
2018-05-26T13:32:15.041Z,31.20
2018-05-26T13:34:41.274Z,31.30
2018-05-26T13:37:07.494Z,31.50
2018-05-26T13:39:33.713Z,31.70
2018-05-26T13:41:59.955Z,31.90
2018-05-26T13:44:26.177Z,32.10
2018-05-26T13:46:52.447Z,32.50
2018-05-26T13:49:19.417Z,32.90
2018-05-26T13:51:45.673Z,32.90
2018-05-26T13:54:11.897Z,33.00
2018-05-26T13:56:38.178Z,33.00
2018-05-26T13:59:04.402Z,33.00
2018-05-26T14:01:31.370Z,32.60
2018-05-26T14:03:57.617Z,32.50
2018-05-26T14:06:23.849Z,32.40
2018-05-26T14:08:50.080Z,32.30
2018-05-26T14:11:16.313Z,32.20
2018-05-26T14:13:42.546Z,32.20
2018-05-26T14:16:08.765Z,32.20
2018-05-26T14:18:35.031Z,32.30
2018-05-26T14:21:01.346Z,32.30
2018-05-26T14:23:34.487Z,32.40
2018-05-26T14:26:01.474Z,32.50
2018-05-26T14:28:27.732Z,32.50
2018-05-26T14:30:53.978Z,32.40
2018-05-26T14:33:20.961Z,32.40
2018-05-26T14:35:47.189Z,32.40
2018-05-26T14:38:13.428Z,32.50
2018-05-26T14:40:39.697Z,32.60
2018-05-26T14:43:05.934Z,32.80
2018-05-26T14:45:32.906Z,33.00
2018-05-26T14:47:59.213Z,32.90
2018-05-26T14:50:26.230Z,32.90
2018-05-26T14:52:52.471Z,32.90
2018-05-26T14:55:18.717Z,33.00
2018-05-26T14:57:45.717Z,33.10
2018-05-26T15:00:11.966Z,33.00
2018-05-26T15:02:38.242Z,33.20
2018-05-26T15:05:04.488Z,33.50
2018-05-26T15:07:30.717Z,33.70
2018-05-26T15:09:56.935Z,33.90
2018-05-26T15:12:23.156Z,34.10
2018-05-26T15:14:49.400Z,34.30
2018-05-26T15:17:15.621Z,34.60
2018-05-26T15:19:41.853Z,34.60
2018-05-26T15:22:08.150Z,34.60
2018-05-26T15:24:35.125Z,34.70
2018-05-26T15:27:01.362Z,34.70
2018-05-26T15:29:27.577Z,34.90
2018-05-26T15:31:53.809Z,35.00
2018-05-26T15:34:20.101Z,35.10
2018-05-26T15:36:46.326Z,35.20
2018-05-26T15:39:12.540Z,35.30
2018-05-26T15:41:38.786Z,35.30
2018-05-26T15:44:05.018Z,35.30
2018-05-26T15:46:32.026Z,35.10
2018-05-26T15:48:58.342Z,35.10
2018-05-26T15:51:24.579Z,35.00
2018-05-26T15:53:50.806Z,35.10
2018-05-26T15:56:17.042Z,35.10
2018-05-26T15:58:43.263Z,35.10
2018-05-26T16:01:09.518Z,34.90
2018-05-26T16:03:35.759Z,34.40
2018-05-26T16:06:02.778Z,34.10
2018-05-26T16:08:29.021Z,34.00
2018-05-26T16:10:55.246Z,34.20
2018-05-26T16:13:21.474Z,34.30
2018-05-26T16:15:47.694Z,34.30
2018-05-26T16:18:13.927Z,34.20
2018-05-26T16:20:40.146Z,34.00
2018-05-26T16:23:06.378Z,33.60
2018-05-26T16:25:32.613Z,33.20
2018-05-26T16:27:58.862Z,32.70
2018-05-26T16:30:25.102Z,32.30
2018-05-26T16:32:51.357Z,32.00
2018-05-26T16:35:17.589Z,31.60
2018-05-26T16:37:43.813Z,31.20
2018-05-26T16:40:10.798Z,30.60
2018-05-26T16:42:37.042Z,30.50
2018-05-26T16:45:03.311Z,30.20
2018-05-26T16:47:30.273Z,29.60
2018-05-26T16:49:56.509Z,29.60
2018-05-26T16:52:22.741Z,29.40
2018-05-26T16:54:48.969Z,29.20
2018-05-26T16:57:15.225Z,29.00
2018-05-26T16:59:48.525Z,28.80
2018-05-26T17:02:14.753Z,28.70
2018-05-26T17:04:40.982Z,28.50
2018-05-26T17:07:07.234Z,28.40
2018-05-26T17:09:33.450Z,28.30
2018-05-26T17:11:59.703Z,28.20
2018-05-26T17:14:41.601Z,28.00
2018-05-26T17:17:08.574Z,27.90
2018-05-26T17:19:34.837Z,27.90
2018-05-26T17:22:01.057Z,27.80
2018-05-26T17:24:27.274Z,27.70
2018-05-26T17:26:53.505Z,27.60
2018-05-26T17:29:19.749Z,27.50
2018-05-26T17:31:45.969Z,27.50
2018-05-26T17:34:12.177Z,27.40
2018-05-26T17:36:38.479Z,27.30
2018-05-26T17:39:04.673Z,27.30
2018-05-26T17:41:31.669Z,27.30
2018-05-26T17:43:57.927Z,27.30
2018-05-26T17:46:24.169Z,27.30
2018-05-26T17:48:50.413Z,27.30
2018-05-26T17:51:16.644Z,27.30
2018-05-26T17:53:42.877Z,27.30
2018-05-26T17:56:09.106Z,27.20
2018-05-26T17:58:35.350Z,27.10
2018-05-26T18:01:02.376Z,26.90
2018-05-26T18:03:28.605Z,26.90
2018-05-26T18:05:54.838Z,26.70
2018-05-26T18:08:21.103Z,26.60
2018-05-26T18:10:47.337Z,26.40
2018-05-26T18:13:13.566Z,26.30
2018-05-26T18:15:39.837Z,26.10
2018-05-26T18:18:06.078Z,26.00
2018-05-26T18:20:32.370Z,25.80
2018-05-26T18:22:59.293Z,25.60
2018-05-26T18:25:25.534Z,25.60
2018-05-26T18:27:51.804Z,25.40
2018-05-26T18:30:18.037Z,25.40
2018-05-26T18:32:44.258Z,25.30
2018-05-26T18:35:10.486Z,25.20
2018-05-26T18:37:36.720Z,25.00
2018-05-26T18:40:02.962Z,24.90
2018-05-26T18:42:29.210Z,24.80
2018-05-26T18:44:56.176Z,24.60
2018-05-26T18:47:22.409Z,24.60
2018-05-26T18:49:48.617Z,24.50
2018-05-26T18:52:15.758Z,24.30
2018-05-26T18:54:42.782Z,24.20
2018-05-26T18:57:09.122Z,24.20
2018-05-26T18:59:35.378Z,24.10
2018-05-26T19:02:02.403Z,23.90
2018-05-26T19:04:29.469Z,23.80
2018-05-26T19:06:55.747Z,23.80
2018-05-26T19:09:22.000Z,23.80
2018-05-26T19:11:48.250Z,23.70
2018-05-26T19:14:15.242Z,23.50
2018-05-26T19:16:41.535Z,23.40
2018-05-26T19:19:07.825Z,23.30
2018-05-26T19:21:34.142Z,23.10
2018-05-26T19:24:00.416Z,23.00
2018-05-26T19:26:27.378Z,22.70
2018-05-26T19:28:53.678Z,22.70
2018-05-26T19:31:20.002Z,22.60
2018-05-26T19:33:46.282Z,22.60
2018-05-26T19:36:12.515Z,22.50
2018-05-26T19:38:38.961Z,22.50
2018-05-26T19:41:05.235Z,22.40
2018-05-26T19:43:32.286Z,22.30
2018-05-26T19:45:59.274Z,22.30
2018-05-26T19:48:25.542Z,22.20
2018-05-26T19:50:51.802Z,22.20
2018-05-26T20:06:40.117Z,22.10
2018-05-26T20:09:08.417Z,22.00
2018-05-26T20:11:36.736Z,22.00
2018-05-26T20:14:04.261Z,21.90
2018-05-26T20:16:31.770Z,22.00
2018-05-26T20:18:59.314Z,21.90
2018-05-26T20:21:26.810Z,21.90
2018-05-26T20:23:55.090Z,21.80
2018-05-26T20:26:23.367Z,21.70
2018-05-26T20:28:51.637Z,21.70
2018-05-26T20:31:19.280Z,21.70
2018-05-26T20:33:46.804Z,21.70
2018-05-26T20:36:14.323Z,21.70
2018-05-26T20:38:42.601Z,21.60
2018-05-26T20:41:10.138Z,21.60
2018-05-26T20:43:37.666Z,21.50
2018-05-26T20:46:05.166Z,21.50
2018-05-26T20:48:32.673Z,21.40
2018-05-26T20:51:00.177Z,21.30
2018-05-26T20:53:27.676Z,21.30
2018-05-26T20:55:55.173Z,21.30
2018-05-26T20:58:22.685Z,21.20
2018-05-26T21:00:50.263Z,21.10
2018-05-26T21:03:17.766Z,21.10
2018-05-26T21:05:45.294Z,21.10
2018-05-26T21:08:12.802Z,21.00
2018-05-26T21:10:41.074Z,20.90
2018-05-26T21:13:09.353Z,20.90
2018-05-26T21:15:37.637Z,20.90
2018-05-26T21:18:05.906Z,20.80
2018-05-26T21:20:34.185Z,20.80
2018-05-26T21:23:02.449Z,20.80
2018-05-26T21:25:29.946Z,20.70
2018-05-26T21:27:57.454Z,20.70
2018-05-26T21:30:24.978Z,20.60
2018-05-26T21:32:52.482Z,20.60
2018-05-26T21:35:19.986Z,20.50
2018-05-26T21:37:47.490Z,20.50
2018-05-26T21:40:16.508Z,20.40
2018-05-26T21:42:44.777Z,20.40
2018-05-26T21:45:13.059Z,20.40
2018-05-26T21:47:41.337Z,20.40
2018-05-26T21:50:09.610Z,20.40
2018-05-26T21:52:37.869Z,20.30
2018-05-26T21:55:05.454Z,20.30
2018-05-26T21:57:33.729Z,20.20
2018-05-26T22:00:02.011Z,20.20
2018-05-26T22:02:29.529Z,20.20
2018-05-26T22:04:57.022Z,20.20
2018-05-26T22:07:25.291Z,20.10
2018-05-26T22:09:53.573Z,20.10
2018-05-26T22:12:21.830Z,20.00
2018-05-26T22:14:49.326Z,20.00
2018-05-26T22:17:17.830Z,20.00
2018-05-26T22:19:45.330Z,20.00
2018-05-26T22:22:12.849Z,20.00
2018-05-26T22:24:40.353Z,20.00
2018-05-26T22:27:07.899Z,20.00
2018-05-26T22:29:36.919Z,19.80
2018-05-26T22:32:05.185Z,19.80
2018-05-26T22:34:32.994Z,19.80
2018-05-26T22:37:00.801Z,19.70
2018-05-26T22:39:29.304Z,19.60
2018-05-26T22:41:57.191Z,19.60
2018-05-26T22:44:25.016Z,19.60
2018-05-26T22:46:53.656Z,19.60
2018-05-26T22:49:21.627Z,19.60
2018-05-26T22:51:49.391Z,19.60
2018-05-26T22:54:17.294Z,19.60
2018-05-26T22:56:46.763Z,19.50
2018-05-26T22:59:14.392Z,19.50
2018-05-26T23:01:41.995Z,19.50
2018-05-26T23:04:09.784Z,19.50
2018-05-26T23:06:38.435Z,19.50
2018-05-26T23:09:06.302Z,19.40
2018-05-26T23:11:34.017Z,19.40
2018-05-26T23:14:02.571Z,19.40
2018-05-26T23:16:31.029Z,19.30
2018-05-26T23:18:58.793Z,19.30
2018-05-26T23:21:26.661Z,19.40
2018-05-26T23:23:54.429Z,19.40
2018-05-26T23:26:22.230Z,19.30
2018-05-26T23:28:50.775Z,19.30
2018-05-26T23:31:18.543Z,19.30
2018-05-26T23:33:46.164Z,19.30
2018-05-26T23:36:13.998Z,19.30
2018-05-26T23:38:42.649Z,19.20
2018-05-26T23:41:10.517Z,19.20
2018-05-26T23:43:38.304Z,19.10
2018-05-26T23:46:06.152Z,19.10
2018-05-26T23:48:33.920Z,19.10
2018-05-26T23:51:01.779Z,19.00
2018-05-26T23:53:29.646Z,19.00
2018-05-26T23:55:57.411Z,19.00
2018-05-26T23:58:25.277Z,19.00
